ADDS TAF Board (Experimental) INFO Settings
IDs: Format: Expanded Condensed

KPDX - Portland Intl Arpt, OR, US

Issued at 2320 UTC 06 Jul 2015
Updated at: 0021 UTC 07 Jul 2015
Time2353Z 07/01Z 07/02Z 07/03Z 07/04Z 07/05Z 07/06Z 07/07Z 07/08Z 07/09Z 07/10Z 07/11Z 07/12Z 07/13Z
Type OBS PRVL PRVL PRVL PRVL PRVL PRVL PRVL PRVL PRVL PRVL PRVL PRVL PRVL
VIS 10 >6 >6 >6 >6 >6 >6 >6 >6 >6 >6 >6 >6 >6
CIG -- -- -- -- -- -- -- -- -- -- -- -- -- --
Cover SCT SCT SCT SCT SCT SCT SCT FEW FEW FEW FEW FEW FEW SCT
FltCat VFR VFR VFR VFR VFR VFR VFR VFR VFR VFR VFR VFR VFR VFR
WX -- -- -- -- -- -- -- -- -- -- -- -- -- --
WDir 310 320 320 320 320 320 320 320 320 320 320 320 320 320
WSpd 6 9 9 9 9 9 9 3 3 3 3 3 3 3
WGst -- -- -- -- -- -- -- -- -- -- -- -- -- --
R03/21
XWnd 6 9 9 9 9 9 9 3 3 3 3 3 3 3
HWnd -1 1 1 1 1 1 1 0 0 0 0 0 0 0
R10/28
XWnd 1 3 3 3 3 3 3 1 1 1 1 1 1 1
HWnd -6 -8 -8 -8 -8 -8 -8 -3 -3 -3 -3 -3 -3 -3

NOTE: TEMPO conditions in [brackets]. Keep in mind TEMPO conditions might be better (lower impact) than prevailing conditions.

Raw TAF
KPDX 062320Z 0700/0724 32009KT P6SM FEW120 SCT250
  FM070700 32003KT P6SM FEW250
  FM071300 32003KT P6SM FEW010 SCT150
  FM071600 34005KT P6SM SCT025 SCT150


Raw METAR
KPDX 062353Z 31006KT 10SM FEW120 SCT250 33/13 A2992 RMK AO2 SLP133 ACC DSNT E-SE T03330133 10333 20239 56016
KPDX 062253Z 31007KT 10SM FEW120 SCT250 32/13 A2994 RMK AO2 SLP138 ACC DSNT E-SE T03220128
KPDX 062153Z 35004KT 10SM FEW120 SCT250 31/13 A2995 RMK AO2 SLP142 ACC DSNT E-SE T03110128

METAR Board
Radar Display
Forecast Discussion

TAF Board Legend

Potential Impact
Threat None Slight Moderate High
Visibility (sm) ≥5.1 5.1>X≥3 3>X≥1 <1
Ceiling (100 ft) ≥30.1 30.1>X≥10 10>X≥5 <5
Wind Speed (kt) <10 10≤X<20 20≤X<30 ≥30
Wind Gust (kt) <15 15≤X<25 25≤X<35 ≥35
Weather No Wx Reported VCTS,-TS,-FZRA,SN TS,FZRA +TS,+FZRA,+SN